createdAt,value
2019-03-19T00:02:05.465Z,0.02
2019-03-19T00:04:31.684Z,0.00
2019-03-19T00:06:57.523Z,-0.06
2019-03-19T00:09:23.402Z,-0.09
2019-03-19T00:11:49.296Z,-0.15
2019-03-19T00:14:15.133Z,-0.18
2019-03-19T00:16:41.025Z,-0.21
2019-03-19T00:19:06.874Z,-0.23
2019-03-19T00:21:32.890Z,-0.25
2019-03-19T00:23:58.761Z,-0.26
2019-03-19T00:26:24.612Z,-0.29
2019-03-19T00:28:50.472Z,-0.31
2019-03-19T00:31:16.349Z,-0.34
2019-03-19T00:33:42.326Z,-0.39
2019-03-19T00:36:08.167Z,-0.43
2019-03-19T00:38:34.075Z,-0.46
2019-03-19T00:40:59.950Z,-0.46
2019-03-19T00:43:25.805Z,-0.48
2019-03-19T00:45:51.793Z,-0.48
2019-03-19T00:48:17.756Z,-0.47
2019-03-19T00:50:43.618Z,-0.51
2019-03-19T00:53:09.511Z,-0.52
2019-03-19T00:55:40.750Z,-0.59
2019-03-19T00:58:03.216Z,-0.59
2019-03-19T01:00:29.216Z,-0.61
2019-03-19T01:02:55.075Z,-0.65
2019-03-19T01:05:21.091Z,-0.71
2019-03-19T01:07:46.934Z,-0.74
2019-03-19T01:10:13.105Z,-0.78
2019-03-19T01:12:38.971Z,-0.79
2019-03-19T01:15:06.428Z,-0.79
2019-03-19T01:17:32.277Z,-0.80
2019-03-19T01:19:58.156Z,-0.82
2019-03-19T01:22:24.210Z,-0.83
2019-03-19T01:24:50.071Z,-0.83
2019-03-19T01:27:15.932Z,-0.81
2019-03-19T01:29:41.828Z,-0.79
2019-03-19T01:32:07.684Z,-0.79
2019-03-19T01:34:33.563Z,-0.78
2019-03-19T01:36:59.398Z,-0.78
2019-03-19T01:39:25.244Z,-0.81
2019-03-19T01:41:51.100Z,-1.10
2019-03-19T01:44:17.082Z,-0.87
2019-03-19T01:46:42.955Z,-0.88
2019-03-19T01:49:08.832Z,-0.91
2019-03-19T01:51:34.695Z,-0.93
2019-03-19T01:54:00.542Z,-0.95
2019-03-19T01:56:26.426Z,-0.97
2019-03-19T01:58:52.300Z,-0.99
2019-03-19T02:01:18.195Z,-1.03
2019-03-19T02:03:44.069Z,-1.05
2019-03-19T02:06:10.030Z,-1.05
2019-03-19T02:08:35.893Z,-1.04
2019-03-19T02:11:01.772Z,-1.05
2019-03-19T02:13:27.617Z,-1.05
2019-03-19T02:15:53.463Z,-1.33
2019-03-19T02:18:19.332Z,-1.07
2019-03-19T02:20:45.285Z,-1.09
2019-03-19T02:23:11.147Z,-1.12
2019-03-19T02:25:36.986Z,-1.15
2019-03-19T02:28:02.990Z,-1.16
2019-03-19T02:30:28.981Z,-1.16
2019-03-19T02:32:54.893Z,-1.19
2019-03-19T02:35:20.797Z,-1.19
2019-03-19T02:37:46.712Z,-1.19
2019-03-19T02:40:13.163Z,-1.19
2019-03-19T02:42:39.144Z,-1.20
2019-03-19T02:45:06.397Z,-1.19
2019-03-19T02:47:32.258Z,-1.19
2019-03-19T02:49:58.137Z,-1.19
2019-03-19T02:52:24.149Z,-1.19
2019-03-19T02:54:49.986Z,-1.19
2019-03-19T02:57:15.859Z,-1.15
2019-03-19T02:59:41.696Z,-1.13
2019-03-19T03:02:07.648Z,-1.14
2019-03-19T03:04:33.540Z,-1.13
2019-03-19T03:06:59.639Z,-1.14
2019-03-19T03:09:25.497Z,-1.16
2019-03-19T03:11:51.353Z,-1.17
2019-03-19T03:14:17.210Z,-1.17
2019-03-19T03:16:43.042Z,-1.17
2019-03-19T03:19:08.932Z,-1.18
2019-03-19T03:21:34.910Z,-1.20
2019-03-19T03:24:00.842Z,-1.21
2019-03-19T03:26:26.731Z,-1.22
2019-03-19T03:28:55.023Z,-1.22
2019-03-19T03:31:20.883Z,-1.24
2019-03-19T03:33:46.809Z,-1.24
2019-03-19T03:36:12.669Z,-1.26
2019-03-19T03:38:38.528Z,-1.26
2019-03-19T03:41:04.421Z,-1.29
2019-03-19T03:43:30.642Z,-1.29
2019-03-19T03:45:58.765Z,-1.30
2019-03-19T03:48:24.623Z,-1.30
2019-03-19T03:50:50.472Z,-1.32
2019-03-19T03:53:16.335Z,-1.33
2019-03-19T03:55:42.310Z,-1.34
2019-03-19T03:58:08.210Z,-1.34
2019-03-19T04:00:34.119Z,-1.35
2019-03-19T04:03:00.085Z,-1.35
2019-03-19T04:05:25.926Z,-1.34
2019-03-19T04:07:51.980Z,-1.34
2019-03-19T04:10:18.154Z,-1.34
2019-03-19T04:12:44.136Z,-1.35
2019-03-19T04:15:10.702Z,-1.36
2019-03-19T04:17:36.666Z,-1.35
2019-03-19T04:20:04.107Z,-1.35
2019-03-19T04:22:29.978Z,-1.34
2019-03-19T04:24:56.032Z,-1.34
2019-03-19T04:27:22.100Z,-1.36
2019-03-19T04:29:47.941Z,-1.36
2019-03-19T04:32:13.815Z,-1.35
2019-03-19T04:34:39.756Z,-1.34
2019-03-19T04:37:05.753Z,-1.32
2019-03-19T04:39:31.638Z,-1.31
2019-03-19T04:41:57.575Z,-1.30
2019-03-19T04:44:23.446Z,-1.30
2019-03-19T04:46:49.300Z,-1.30
2019-03-19T04:49:15.152Z,-1.29
2019-03-19T04:51:41.006Z,-1.28
2019-03-19T04:54:06.890Z,-1.28
2019-03-19T04:56:33.055Z,-1.28
2019-03-19T04:58:58.924Z,-1.29
2019-03-19T05:01:25.089Z,-1.29
2019-03-19T05:03:50.959Z,-1.28
2019-03-19T05:06:16.825Z,-1.28
2019-03-19T05:08:42.866Z,-1.30
2019-03-19T05:11:08.700Z,-1.29
2019-03-19T05:13:34.550Z,-1.27
2019-03-19T05:16:00.398Z,-1.27
2019-03-19T05:18:26.273Z,-1.27
2019-03-19T05:20:52.297Z,-1.28
2019-03-19T05:23:18.167Z,-1.29
2019-03-19T05:25:44.131Z,-1.31
2019-03-19T05:28:10.026Z,-1.34
2019-03-19T05:30:35.880Z,-1.33
2019-03-19T05:33:01.739Z,-1.34
2019-03-19T05:35:27.845Z,-1.31
2019-03-19T05:37:53.704Z,-1.31
2019-03-19T05:40:19.571Z,-1.31
2019-03-19T05:42:45.451Z,-1.29
2019-03-19T05:45:11.898Z,-1.31
2019-03-19T05:47:40.328Z,-1.32
2019-03-19T05:50:07.160Z,-1.34
2019-03-19T05:52:33.020Z,-1.34
2019-03-19T05:54:59.248Z,-1.32
2019-03-19T05:57:25.235Z,-1.32
2019-03-19T05:59:51.069Z,-1.34
2019-03-19T06:02:17.029Z,-1.34
2019-03-19T06:04:43.035Z,-1.34
2019-03-19T06:07:08.874Z,-1.34
2019-03-19T06:09:35.176Z,-1.35
2019-03-19T06:12:01.018Z,-1.34
2019-03-19T06:14:26.869Z,-1.34
2019-03-19T06:16:52.799Z,-1.56
2019-03-19T06:19:18.639Z,-1.32
2019-03-19T06:21:44.578Z,-1.34
2019-03-19T06:24:10.430Z,-1.32
2019-03-19T06:26:36.300Z,-1.33
2019-03-19T06:29:02.299Z,-1.32
2019-03-19T06:31:28.283Z,-1.34
2019-03-19T06:33:54.145Z,-1.32
2019-03-19T06:36:20.112Z,-1.32
2019-03-19T06:38:46.017Z,-1.31
2019-03-19T06:41:11.855Z,-1.30
2019-03-19T06:43:37.727Z,-1.30
2019-03-19T06:46:03.685Z,-1.29
2019-03-19T06:48:29.567Z,-1.28
2019-03-19T06:50:55.463Z,-1.26
2019-03-19T06:53:21.416Z,-1.23
2019-03-19T06:55:47.268Z,-1.22
2019-03-19T06:58:13.165Z,-1.20
2019-03-19T07:00:39.131Z,-1.18
2019-03-19T07:03:05.081Z,-1.15
2019-03-19T07:05:30.962Z,-1.15
2019-03-19T07:07:56.821Z,-1.16
2019-03-19T07:10:22.876Z,-1.15
2019-03-19T07:12:48.850Z,-1.15
2019-03-19T07:15:16.590Z,-1.13
2019-03-19T07:17:42.430Z,-1.12
2019-03-19T07:20:09.748Z,-1.10
2019-03-19T07:22:35.622Z,-1.08
2019-03-19T07:25:01.491Z,-1.06
2019-03-19T07:27:27.331Z,-1.03
2019-03-19T07:29:53.307Z,-1.02
2019-03-19T07:32:19.201Z,-0.99
2019-03-19T07:34:45.044Z,-0.98
2019-03-19T07:37:10.894Z,-0.94
2019-03-19T07:39:36.765Z,-0.92
2019-03-19T07:42:02.750Z,-0.88
2019-03-19T07:44:28.636Z,-1.09
2019-03-19T07:46:54.498Z,-0.80
2019-03-19T07:49:20.354Z,-0.77
2019-03-19T07:51:46.250Z,-0.74
2019-03-19T07:54:12.103Z,-0.74
2019-03-19T07:56:37.973Z,-0.72
2019-03-19T07:59:03.844Z,-0.67
2019-03-19T08:01:29.885Z,-0.64
2019-03-19T08:03:55.862Z,-0.60
2019-03-19T08:06:21.732Z,-0.59
2019-03-19T08:08:47.565Z,-0.54
2019-03-19T08:11:13.664Z,-0.51
2019-03-19T08:13:39.541Z,-0.47
2019-03-19T08:16:05.456Z,-0.44
2019-03-19T08:18:31.369Z,-0.40
2019-03-19T08:20:57.239Z,-0.36
2019-03-19T08:23:23.081Z,-0.33
2019-03-19T08:25:48.934Z,-0.29
2019-03-19T08:28:14.772Z,-0.36
2019-03-19T08:30:40.614Z,-0.23
2019-03-19T08:33:06.464Z,-0.21
2019-03-19T08:35:32.440Z,-0.18
2019-03-19T08:37:58.308Z,-0.14
2019-03-19T08:40:24.154Z,-0.12
2019-03-19T08:42:50.048Z,-0.07
2019-03-19T08:45:16.752Z,-0.03
2019-03-19T08:47:42.702Z,-0.04
2019-03-19T08:50:10.183Z,0.00
2019-03-19T08:52:36.017Z,0.06
2019-03-19T08:55:01.979Z,0.10
2019-03-19T08:57:27.895Z,0.13
2019-03-19T08:59:53.767Z,0.17
2019-03-19T09:02:19.721Z,0.22
2019-03-19T09:04:45.614Z,0.27
2019-03-19T09:07:11.462Z,0.33
2019-03-19T09:09:37.322Z,0.38
2019-03-19T09:12:03.288Z,0.43
2019-03-19T09:14:29.130Z,0.47
2019-03-19T09:16:55.031Z,0.51
2019-03-19T09:19:21.106Z,0.58
2019-03-19T09:21:46.956Z,0.63
2019-03-19T09:24:12.932Z,0.69
2019-03-19T09:26:38.897Z,0.76
2019-03-19T09:29:04.749Z,0.84
2019-03-19T09:31:30.744Z,0.90
2019-03-19T09:33:56.737Z,0.97
2019-03-19T09:36:22.584Z,1.04
2019-03-19T09:38:48.450Z,1.11
2019-03-19T09:41:14.434Z,1.17
2019-03-19T09:43:40.397Z,1.22
2019-03-19T09:46:06.245Z,1.28
2019-03-19T09:48:32.092Z,1.32
2019-03-19T09:50:58.005Z,1.38
2019-03-19T09:53:23.980Z,1.45
2019-03-19T09:55:49.832Z,1.53
2019-03-19T09:58:16.486Z,1.59
2019-03-19T10:00:42.468Z,1.67
2019-03-19T10:03:08.350Z,1.77
2019-03-19T10:05:34.190Z,1.86
2019-03-19T10:08:00.070Z,1.95
2019-03-19T10:10:25.979Z,2.04
2019-03-19T10:12:52.079Z,2.15
2019-03-19T10:15:18.025Z,2.26
2019-03-19T10:17:43.979Z,2.34
2019-03-19T10:20:13.386Z,2.40
2019-03-19T10:22:39.349Z,2.46
2019-03-19T10:25:06.994Z,2.48
2019-03-19T10:27:32.853Z,2.51
2019-03-19T10:29:58.688Z,2.53
2019-03-19T10:32:24.713Z,2.54
2019-03-19T10:34:50.671Z,2.55
2019-03-19T10:37:16.525Z,2.59
2019-03-19T10:39:42.428Z,2.61
2019-03-19T10:42:08.288Z,2.61
2019-03-19T10:44:34.150Z,2.64
2019-03-19T10:47:00.030Z,2.65
2019-03-19T10:49:25.882Z,2.67
2019-03-19T10:51:51.826Z,2.68
2019-03-19T10:54:17.847Z,2.72
2019-03-19T10:56:43.815Z,2.77
2019-03-19T10:59:09.650Z,2.82
2019-03-19T11:01:35.550Z,2.87
2019-03-19T11:04:01.506Z,2.91
2019-03-19T11:06:27.365Z,2.88
2019-03-19T11:08:53.338Z,2.90
2019-03-19T11:11:19.171Z,2.91
2019-03-19T11:13:45.154Z,2.94
2019-03-19T11:16:11.136Z,2.95
2019-03-19T11:18:37.103Z,2.92
2019-03-19T11:21:04.176Z,2.96
2019-03-19T11:23:30.176Z,3.00
2019-03-19T11:25:56.030Z,3.03
2019-03-19T11:28:21.873Z,3.04
2019-03-19T11:30:47.750Z,3.01
2019-03-19T11:33:13.616Z,3.01
2019-03-19T11:35:39.594Z,3.03
2019-03-19T11:38:05.680Z,3.04
2019-03-19T11:40:31.639Z,3.05
2019-03-19T11:42:57.586Z,3.05
2019-03-19T11:45:25.379Z,3.03
2019-03-19T11:47:51.338Z,3.04
2019-03-19T11:50:22.136Z,3.03
2019-03-19T11:52:48.096Z,3.04
2019-03-19T11:55:14.475Z,3.04
2019-03-19T11:57:40.445Z,3.04
2019-03-19T12:00:27.006Z,3.03
2019-03-19T12:02:52.877Z,3.05
2019-03-19T12:05:18.717Z,3.06
2019-03-19T12:07:44.591Z,3.09
2019-03-19T12:10:10.567Z,3.10
2019-03-19T12:12:36.515Z,3.09
2019-03-19T12:15:03.443Z,3.10
2019-03-19T12:17:29.411Z,3.10
2019-03-19T12:19:55.284Z,3.09
2019-03-19T12:22:21.152Z,3.05
2019-03-19T12:24:47.047Z,3.02
2019-03-19T12:27:12.903Z,3.04
2019-03-19T12:29:38.767Z,3.05
2019-03-19T12:32:04.763Z,3.07
2019-03-19T12:34:30.761Z,3.06
2019-03-19T12:36:56.626Z,3.01
2019-03-19T12:39:22.528Z,2.98
2019-03-19T12:41:48.666Z,2.97
2019-03-19T12:44:14.545Z,2.95
2019-03-19T12:46:40.512Z,2.95
2019-03-19T12:49:06.388Z,2.99
2019-03-19T12:51:32.370Z,3.00
2019-03-19T12:53:58.526Z,3.03
2019-03-19T12:56:24.510Z,3.04
2019-03-19T12:58:50.356Z,3.05
2019-03-19T13:01:16.321Z,3.03
2019-03-19T13:03:42.154Z,3.04
2019-03-19T13:06:08.203Z,3.02
2019-03-19T13:08:34.117Z,3.01
2019-03-19T13:10:59.991Z,3.00
2019-03-19T13:13:25.884Z,3.00
2019-03-19T13:15:51.894Z,2.97
2019-03-19T13:18:17.759Z,2.96
2019-03-19T13:20:43.606Z,2.94
2019-03-19T13:23:09.493Z,2.93
2019-03-19T13:25:35.454Z,2.96
2019-03-19T13:28:01.339Z,2.97
2019-03-19T13:30:27.907Z,2.95
2019-03-19T13:32:53.753Z,2.95
2019-03-19T13:35:19.728Z,2.95
2019-03-19T13:37:45.586Z,2.95
2019-03-19T13:40:12.628Z,2.96
2019-03-19T13:42:39.502Z,2.98
2019-03-19T13:45:06.879Z,2.97
2019-03-19T13:47:32.831Z,2.97
2019-03-19T13:49:58.755Z,2.98
2019-03-19T13:52:24.623Z,2.99
2019-03-19T13:54:50.454Z,3.00
2019-03-19T13:57:16.346Z,2.98
2019-03-19T13:59:42.195Z,2.99
2019-03-19T14:02:08.056Z,2.99
2019-03-19T14:04:33.913Z,3.00
2019-03-19T14:06:59.881Z,2.98
2019-03-19T14:09:25.875Z,2.99
2019-03-19T14:11:51.721Z,2.99
2019-03-19T14:14:17.662Z,3.00
2019-03-19T14:16:43.824Z,3.00
2019-03-19T14:19:11.581Z,2.99
2019-03-19T14:21:37.454Z,2.98
2019-03-19T14:24:03.408Z,2.98
2019-03-19T14:26:29.368Z,2.97
2019-03-19T14:28:55.233Z,2.98
2019-03-19T14:31:21.227Z,2.98
2019-03-19T14:33:47.071Z,3.00
2019-03-19T14:36:12.939Z,3.01
2019-03-19T14:38:46.742Z,3.03
2019-03-19T14:41:06.608Z,3.04
2019-03-19T14:43:32.470Z,3.00
2019-03-19T14:45:58.451Z,2.99
2019-03-19T14:48:24.348Z,2.97
2019-03-19T14:50:50.303Z,2.94
2019-03-19T14:53:18.066Z,2.94
2019-03-19T14:55:43.932Z,2.95
2019-03-19T14:58:09.827Z,2.96
2019-03-19T15:00:35.828Z,2.97
2019-03-19T15:03:01.678Z,2.98
2019-03-19T15:05:27.536Z,2.98
2019-03-19T15:07:53.414Z,2.98
2019-03-19T15:10:19.890Z,2.99
2019-03-19T15:12:45.862Z,3.00
2019-03-19T15:15:13.139Z,3.01
2019-03-19T15:17:39.312Z,3.03
2019-03-19T15:20:07.060Z,3.04
2019-03-19T15:22:33.316Z,3.03
2019-03-19T15:24:59.162Z,3.04
2019-03-19T15:27:25.155Z,3.04
2019-03-19T15:29:51.031Z,3.03
2019-03-19T15:32:17.043Z,3.04
2019-03-19T15:34:42.900Z,3.04
2019-03-19T15:37:08.761Z,3.06
2019-03-19T15:39:34.619Z,3.09
2019-03-19T15:42:00.599Z,3.12
2019-03-19T15:44:26.452Z,3.13
2019-03-19T15:46:52.346Z,3.14
2019-03-19T15:49:18.203Z,3.15
2019-03-19T15:51:44.046Z,3.18
2019-03-19T15:54:09.977Z,3.18
2019-03-19T15:56:35.874Z,3.16
2019-03-19T15:59:01.748Z,3.15
2019-03-19T16:01:27.658Z,3.15
2019-03-19T16:03:53.507Z,3.12
2019-03-19T16:06:19.552Z,3.10
2019-03-19T16:08:45.420Z,3.08
2019-03-19T16:11:11.275Z,3.06
2019-03-19T16:13:37.131Z,3.06
2019-03-19T16:16:03.130Z,3.05
2019-03-19T16:18:29.187Z,3.05
2019-03-19T16:20:55.025Z,3.03
2019-03-19T16:23:20.913Z,3.03
2019-03-19T16:25:46.776Z,3.03
2019-03-19T16:28:12.695Z,3.05
2019-03-19T16:30:38.661Z,3.06
2019-03-19T16:33:04.702Z,3.04
2019-03-19T16:35:30.710Z,3.03
2019-03-19T16:37:56.705Z,3.03
2019-03-19T16:40:22.763Z,3.00
2019-03-19T16:42:48.761Z,3.00
2019-03-19T16:45:14.830Z,3.00
2019-03-19T16:47:40.810Z,2.99
2019-03-19T16:50:09.539Z,2.98
2019-03-19T16:52:35.386Z,2.96
2019-03-19T16:55:01.380Z,2.97
2019-03-19T16:57:27.273Z,2.97
2019-03-19T16:59:53.148Z,2.96
2019-03-19T17:02:18.978Z,2.93
2019-03-19T17:04:44.867Z,2.92
2019-03-19T17:07:10.870Z,2.92
2019-03-19T17:09:36.832Z,2.92
2019-03-19T17:12:02.897Z,2.87
2019-03-19T17:14:28.751Z,2.82
2019-03-19T17:16:54.610Z,2.58
2019-03-19T17:19:20.722Z,2.78
2019-03-19T17:21:46.695Z,2.77
2019-03-19T17:24:12.552Z,2.78
2019-03-19T17:26:38.429Z,2.75
2019-03-19T17:29:04.411Z,2.67
2019-03-19T17:31:30.262Z,2.60
2019-03-19T17:33:56.322Z,2.58
2019-03-19T17:36:22.200Z,2.57
2019-03-19T17:38:48.852Z,2.56
2019-03-19T17:41:14.776Z,2.50
2019-03-19T17:43:40.616Z,2.45
2019-03-19T17:46:06.476Z,2.43
2019-03-19T17:48:32.350Z,2.41
2019-03-19T17:50:58.308Z,2.39
2019-03-19T17:53:24.278Z,2.36
2019-03-19T17:55:50.325Z,2.32
2019-03-19T17:58:16.364Z,2.29
2019-03-19T18:00:44.258Z,2.26
2019-03-19T18:03:10.109Z,2.23
2019-03-19T18:05:36.018Z,2.20
2019-03-19T18:08:01.802Z,2.15
2019-03-19T18:10:27.788Z,2.08
2019-03-19T18:12:53.633Z,1.97
2019-03-19T18:15:19.603Z,1.92
2019-03-19T18:17:45.454Z,1.91
2019-03-19T18:20:12.189Z,1.90
2019-03-19T18:22:38.126Z,1.89
2019-03-19T18:25:04.722Z,1.87
2019-03-19T18:27:30.575Z,1.87
2019-03-19T18:29:56.448Z,1.86
2019-03-19T18:32:22.372Z,1.85
2019-03-19T18:34:48.234Z,1.78
2019-03-19T18:37:14.115Z,1.73
2019-03-19T18:39:39.969Z,1.70
2019-03-19T18:42:05.930Z,1.66
2019-03-19T18:44:31.777Z,1.62
2019-03-19T18:46:57.692Z,1.58
2019-03-19T18:49:23.543Z,1.51
2019-03-19T18:51:49.392Z,1.48
2019-03-19T18:54:15.333Z,1.47
2019-03-19T18:56:41.271Z,1.46
2019-03-19T18:59:07.948Z,1.44
2019-03-19T19:01:33.956Z,1.41
2019-03-19T19:04:00.231Z,1.39
2019-03-19T19:06:26.122Z,1.34
2019-03-19T19:08:51.979Z,1.27
2019-03-19T19:11:17.927Z,1.21
2019-03-19T19:13:43.798Z,1.21
2019-03-19T19:16:09.690Z,1.20
2019-03-19T19:18:36.577Z,1.20
2019-03-19T19:21:02.751Z,1.19
2019-03-19T19:23:28.675Z,1.18
2019-03-19T19:25:54.533Z,1.18
2019-03-19T19:28:20.407Z,1.15
2019-03-19T19:30:46.383Z,1.12
2019-03-19T19:33:12.274Z,1.05
2019-03-19T19:35:38.155Z,0.97
2019-03-19T19:38:04.327Z,0.89
2019-03-19T19:40:30.273Z,0.87
2019-03-19T19:42:56.116Z,0.85
2019-03-19T19:45:22.088Z,0.83
2019-03-19T19:47:48.052Z,0.78
2019-03-19T19:50:14.413Z,0.75
2019-03-19T19:52:40.278Z,0.73
2019-03-19T19:55:07.347Z,0.68
2019-03-19T19:57:33.334Z,0.63
2019-03-19T20:00:01.709Z,0.62
2019-03-19T20:02:26.994Z,0.61
2019-03-19T20:05:02.498Z,0.60
2019-03-19T20:07:20.522Z,0.57
2019-03-19T20:09:46.391Z,0.50
2019-03-19T20:12:12.249Z,0.45
2019-03-19T20:14:38.116Z,0.39
2019-03-19T20:17:06.503Z,0.36
2019-03-19T20:19:32.376Z,0.36
2019-03-19T20:21:58.486Z,0.38
2019-03-19T20:24:24.501Z,0.37
2019-03-19T20:26:50.459Z,0.36
2019-03-19T20:29:16.321Z,0.36
2019-03-19T20:31:42.263Z,0.34
2019-03-19T20:34:08.124Z,0.31
2019-03-19T20:36:33.982Z,0.29
2019-03-19T20:39:00.670Z,0.21
2019-03-19T20:41:26.724Z,0.13
2019-03-19T20:43:52.775Z,0.07
2019-03-19T20:46:18.724Z,-0.02
2019-03-19T20:48:44.576Z,-0.09
2019-03-19T20:51:10.569Z,-0.08
2019-03-19T20:53:38.321Z,-0.09
2019-03-19T20:56:04.158Z,-0.10
2019-03-19T20:58:30.044Z,-0.14
2019-03-19T21:00:56.086Z,-0.15
2019-03-19T21:03:22.071Z,-0.21
2019-03-19T21:05:48.144Z,-0.24
2019-03-19T21:08:14.013Z,-0.26
2019-03-19T21:10:40.252Z,-0.29
2019-03-19T21:13:06.548Z,-0.33
2019-03-19T21:15:32.514Z,-0.36
2019-03-19T21:17:58.391Z,-0.42
2019-03-19T21:20:24.631Z,-0.43
2019-03-19T21:22:50.728Z,-0.43
2019-03-19T21:25:16.658Z,-0.43
2019-03-19T21:27:42.670Z,-0.46
2019-03-19T21:30:11.889Z,-0.50
2019-03-19T21:32:37.915Z,-0.52
2019-03-19T21:35:05.895Z,-0.54
2019-03-19T21:37:32.961Z,-0.60
2019-03-19T21:39:58.820Z,-0.62
2019-03-19T21:42:24.897Z,-0.66
2019-03-19T21:44:50.764Z,-0.68
2019-03-19T21:47:16.732Z,-0.72
2019-03-19T21:49:45.040Z,-0.80
2019-03-19T21:52:10.298Z,-0.88
2019-03-19T21:54:36.164Z,-0.90
2019-03-19T21:57:02.109Z,-0.90
2019-03-19T21:59:27.957Z,-0.91
2019-03-19T22:01:53.925Z,-0.95
2019-03-19T22:04:19.899Z,-1.00
2019-03-19T22:06:45.780Z,-1.07
2019-03-19T22:09:11.752Z,-1.10
2019-03-19T22:11:37.711Z,-1.09
2019-03-19T22:14:03.721Z,-1.09
2019-03-19T22:16:29.681Z,-1.10
2019-03-19T22:18:55.533Z,-1.11
2019-03-19T22:21:21.402Z,-1.14
2019-03-19T22:23:47.385Z,-1.15
2019-03-19T22:26:13.244Z,-1.17
2019-03-19T22:28:39.251Z,-1.19
2019-03-19T22:31:05.099Z,-1.24
2019-03-19T22:33:33.649Z,-1.34
2019-03-19T22:35:58.767Z,-1.38
2019-03-19T22:38:24.636Z,-1.38
2019-03-19T22:40:50.502Z,-1.39
2019-03-19T22:43:16.358Z,-1.41
2019-03-19T22:45:42.300Z,-1.42
2019-03-19T22:48:08.184Z,-1.44
2019-03-19T22:50:34.040Z,-1.45
2019-03-19T22:53:00.028Z,-1.47
2019-03-19T22:55:29.328Z,-1.49
2019-03-19T22:57:53.810Z,-1.52
2019-03-19T23:00:24.907Z,-1.54
2019-03-19T23:02:51.063Z,-1.60
2019-03-19T23:05:17.030Z,-1.63
2019-03-19T23:07:42.969Z,-1.66
2019-03-19T23:10:08.965Z,-1.67
2019-03-19T23:12:34.954Z,-1.66
2019-03-19T23:15:00.903Z,-1.65
2019-03-19T23:17:26.988Z,-1.66
2019-03-19T23:19:52.922Z,-1.67
2019-03-19T23:22:18.815Z,-1.72
2019-03-19T23:24:44.899Z,-1.70
2019-03-19T23:27:10.759Z,-1.71
2019-03-19T23:29:36.640Z,-1.72
2019-03-19T23:32:02.616Z,-1.74
2019-03-19T23:34:38.208Z,-1.74
2019-03-19T23:36:56.208Z,-1.76
2019-03-19T23:39:22.094Z,-1.77
2019-03-19T23:41:47.975Z,-1.80
2019-03-19T23:44:13.836Z,-1.84
2019-03-19T23:46:39.803Z,-1.84
2019-03-19T23:49:05.747Z,-1.85
2019-03-19T23:51:31.602Z,-1.84
2019-03-19T23:53:57.472Z,-1.83
2019-03-19T23:56:23.311Z,-1.85
2019-03-19T23:58:49.207Z,-1.86
